Airfield :
LOGIN :

Register | Disclaimer

   EN    FR    IT 

 










Legend :    VFR   Marginal VFR   IFR   Intensive IFR   Very Intensive IFR
Visi :
Ceiling :
>= 8 km
>= 3000ft
5 to 8 km
1000 to 3000 ft
1500m to 5 km
500 to 1000 ft
800 to 1500m
200 to 500 ft
< 800m
< 200 ft
Symbols :   Thunderstorms  Fog  Heavy snow  Heavy precipitations  Wind > 20 kt
SIGMETs :     Misc.  Thunderstorms  Icing  Turbulence  Mountain Waves  Volcanic Ashes






- Airport Elevation : 755 ft
- IATA code : DRS


EDDC - Dresden Klotzsche

CURRENT METAR :
  • 181320Z 14008KT 080V180 CAVOK 23/10 Q1025 NOSIG

EXPIRED METARs :
  • 181250Z 14006KT 090V200 CAVOK 23/10 Q1025 NOSIG
  • 181220Z 17006KT 100V230 CAVOK 23/11 Q1025 NOSIG
  • 181150Z 14009KT 080V210 CAVOK 22/09 Q1025 NOSIG
  • 181120Z 14007KT 030V180 9999 SCT048 21/10 Q1025 NOSIG
  • 181050Z 13009KT 100V170 9999 FEW048 22/10 Q1026 NOSIG

TAF TAF EDDC
Valid from the 18 at 12:00 until the 19 at 12:00 UTC


181100Z 1812/1912 13005KT CAVOK
TEMPO 1812/1905 16012KT
BECMG 1905/1908 16012KT
PROB30
TEMPO 1908/1912 16015G25KT



MET'MAP, your aeronautical weather chart ! - Copyright ORBIFLY December 2007 - Disclaimer

ORBIFLY MET'MAP TEAM :

Programming & Development : Alexandra Zaïnal
Original concept : Baudouin d'Aumeries
Technical & hardware support : Manuel Goepfert
Assistance : Marc-Olivier Méhu

Contact : metmap@orbifly.com




SOURCES & CREDITS :

   NOAA